• Join FlightAware (Why Join?)
  • Login
  • US Flag 
03:04PM EDT


 

Airport Tracker/Info


-or-


 

Live Flight TrackerFlight Track Log ✈ N693C ✈ 06-Oct-2013 ✈ PA88 - KRDU

Flight Track Log - Related Links

Times and Time Zones

All times are in EDT time to prevent confusion due to time zone crossing. See the N693C flight status page for this flight to view local times or setup timezone preferences in your user account.

Time Position Orientation Groundspeed Altitude Reporting Facility
EDT Latitude Longitude Course Direction KTS MPH feet Rate Location/Type
03:40PM 39.7036 -79.5408 169° South 102 117 6,100  Level Cleveland Center
03:41PM 39.6747 -79.5344 170° South 105 121 6,800 720 Climbing Cleveland Center
03:42PM 39.6456 -79.5269 169° South 107 123 7,600 780 Climbing Cleveland Center
03:43PM 39.6097 -79.5139 164° South 109 125 8,500 60 Climbing Cleveland Center
03:44PM 39.6051 -79.5080 169° South  Level Estimated
03:44PM 39.5697 -79.5078 173° South 135 155 7,800  Level Cleveland Center
03:45PM 39.5652 -79.4977 169° South  Level FlightAware Approximate
03:45PM 39.5247 -79.4983 171° South 158 182 7,100  Level Cleveland Center
03:46PM 39.4800 -79.4850 167° South 163 188 7,100  Level Cleveland Center
03:47PM 39.4394 -79.4739 168° South 157 181 7,100  Level Cleveland Center
03:48PM 39.3992 -79.4650 170° South 151 174 7,100  Level Cleveland Center
03:49PM 39.3525 -79.4528 169° South 146 168 7,100  Level Cleveland Center
03:50PM 39.3125 -79.4425 169° South 146 168 7,100  Level Cleveland Center
03:51PM 39.2725 -79.4331 170° South 146 168 7,100  Level Cleveland Center
03:52PM 39.2339 -79.4236 169° South 168 193 7,100  Level Washington Center
03:53PM 39.1925 -79.4161 172° South 160 184 7,100 -60 Level Washington Center
03:54PM 39.1511 -79.4058 169° South 155 178 7,000 -60 Descending Washington Center
03:55PM 39.1117 -79.3958 169° South 155 178 7,000  Level Washington Center
03:56PM 39.0725 -79.3856 168° South 155 178 7,000  Level Washington Center
03:57PM 39.0311 -79.3728 167° South 161 185 7,000  Level Washington Center
03:58PM 38.9939 -79.3656 171° South 155 178 7,000  Level Washington Center
03:59PM 38.9547 -79.3556 169° South 155 178 7,000  Level Washington Center
04:00PM 38.9153 -79.3456 169° South 150 173 7,000  Level Washington Center
04:01PM 38.8739 -79.3353 169° South 150 173 7,000  Level Washington Center
04:02PM 38.8347 -79.3253 169° South 150 173 7,000  Level Washington Center
04:03PM 38.7972 -79.3181 171° South 150 173 7,000  Level Washington Center
04:05PM 38.7144 -79.3033 172° South 150 173 7,000  Level Washington Center
04:06PM 38.6750 -79.2961 172° South 144 166 7,000  Level Washington Center
04:07PM 38.6336 -79.2833 166° South 144 166 7,000  Level Washington Center
04:08PM 38.5922 -79.2758 172° South 144 166 7,000  Level Washington Center
04:09PM 38.5569 -79.2661 168° South 144 166 7,000  Level Washington Center
04:10PM 38.5178 -79.2564 169° South 161 185 7,000  Level Washington Center
04:11PM 38.4783 -79.2492 172° South 156 180 7,000  Level Washington Center
04:12PM 38.4392 -79.2367 166° South 151 174 7,000  Level Washington Center
04:13PM 38.3997 -79.2292 172° South 146 168 7,000  Level Washington Center
04:14PM 38.3583 -79.2194 170° South 146 168 7,000  Level Washington Center
04:15PM 38.3169 -79.2067 166° South 146 168 7,000  Level Washington Center
04:16PM 38.2775 -79.1994 172° South 146 168 7,000  Level Washington Center
04:17PM 38.2383 -79.1897 169° South 146 168 7,000  Level Washington Center
04:18PM 38.2031 -79.1800 168° South 146 168 7,000  Level Washington Center
04:19PM 38.1658 -79.1703 168° South 146 168 7,000  Level Washington Center
04:20PM 38.1242 -79.1631 172° South 146 168 7,000  Level Washington Center
04:21PM 38.0869 -79.1533 168° South 141 162 7,000  Level Washington Center
04:22PM 38.0436 -79.1433 170° South 141 162 7,000  Level Washington Center
04:23PM 38.0042 -79.1336 169° South 141 162 7,000  Level Washington Center
04:24PM 37.9650 -79.1239 169° South 146 168 7,000  Level Washington Center
04:27PM 37.8877 -79.0988 175° South  Level FlightAware Approximate
04:34PM 37.6068 -79.0729 176° South  Level FlightAware Approximate
04:35PM 37.5666 -79.0696 176° South  Level FlightAware Approximate
04:36PM 37.5265 -79.0663 176° South  Level FlightAware Approximate
04:37PM 37.4863 -79.0630 176° South  Level FlightAware Approximate
04:38PM 37.4462 -79.0597 176° South  Level FlightAware Approximate
04:39PM 37.4060 -79.0564 176° South  Level FlightAware Approximate
04:40PM 37.3659 -79.0532 176° South  Level FlightAware Approximate
04:40PM 37.3261 -79.0656 176° South 151 174 7,000  Level Washington Center
04:41PM 37.3257 -79.0499 176° South  Level FlightAware Approximate
04:41PM 37.2806 -79.0583 173° South 151 174 7,000  Level Washington Center
04:42PM 37.2856 -79.0466 176° South  Level FlightAware Approximate
04:42PM 37.2492 -79.0569 178° South 151 174 7,000  Level Washington Center
04:43PM 37.2454 -79.0433 176° South  Level FlightAware Approximate
04:43PM 37.2075 -79.0550 178° South 151 174 7,000  Level Washington Center
04:44PM 37.2053 -79.0401 176° South  Level FlightAware Approximate
04:44PM 37.1661 -79.0506 175° South 151 174 7,000  Level Washington Center
04:45PM 37.1651 -79.0368 176° South  Level FlightAware Approximate
04:45PM 37.1264 -79.0486 178° South 151 174 7,000  Level Washington Center
04:46PM 37.1250 -79.0335 176° South  Level FlightAware Approximate
04:46PM 37.0806 -79.0467 178° South 151 174 7,000  Level Washington Center
04:47PM 37.0411 -79.0422 175° South 151 174 7,000  Level Washington Center
04:48PM 37.0017 -79.0378 175° South 151 174 7,000  Level Washington Center
04:49PM 36.9619 -79.0361 178° South 151 174 7,000  Level Washington Center
04:50PM 36.9267 -79.0319 175° South 146 168 7,000  Level Washington Center
04:51PM 36.8850 -79.0300 178° South 146 168 7,000  Level Washington Center
04:52PM 36.8453 -79.0283 178° South 146 168 7,000  Level Washington Center
04:53PM 36.8061 -79.0161 166° South 146 168 7,000  Level Washington Center
04:54PM 36.7647 -79.0039 167° South 141 162 7,000  Level Washington Center
04:55PM 36.7253 -78.9944 169° South 141 162 7,000  Level Washington Center
04:56PM 36.6858 -78.9850 169° South 141 162 7,000  Level Washington Center
04:58PM 36.6355 -78.9708 167° South  Level FlightAware Approximate
04:58PM 36.6092 -78.9686 167° South 141 162 7,000  Level Washington Center
04:59PM 36.5614 -78.9589 171° South 148 170 7,000  Level Washington Center
05:00PM 36.5242 -78.9469 166° South 148 170 7,000  Level Washington Center
05:01PM 36.4892 -78.9378 168° South 146 168 7,000  Level Washington Center
05:01PM 36.4744 -78.9369 177° South 148 170 7,000  Level Washington Center
05:02PM 36.4497 -78.9308 169° South 146 168 7,000  Level Washington Center
05:03PM 36.4308 -78.9275 172° South 145 167 7,000  Level Washington Center
05:03PM 36.4083 -78.9161 158° South 146 168 7,000  Level Washington Center
05:04PM 36.3917 -78.9153 178° South 144 166 7,000  Level Washington Center
05:04PM 36.3689 -78.9092 168° South 146 168 7,000  Level Washington Center
05:04PM 36.3564 -78.9086 178° South 144 166 7,000 -120 Level Washington Center
05:05PM 36.3275 -78.8972 162° South 146 168 6,900 -120 Descending Washington Center
05:05PM 36.3233 -78.8969 177° South 141 162 6,900 -660 Level Washington Center
05:06PM 36.2858 -78.8878 169° South 154 177 6,300 -780 Descending Washington Center
05:06PM 36.2797 -78.8900 196° South 158 182 6,200 -840 Descending Washington Center
05:07PM 36.2406 -78.8756 163° South 165 190 5,500 -660 Descending Washington Center
05:07PM 36.2383 -78.8781 222° Southwest 166 191 5,500 -780 Level Washington Center
05:08PM 36.1953 -78.8478 150° Southeast 171 197 4,700 -840 Descending Washington Center
05:09PM 36.1503 -78.8178 152° Southeast 170 196 3,800 -840 Descending Washington Center
05:10PM 36.1047 -78.8031 165° South 169 194 3,000 -720 Descending Washington Center
05:11PM 36.0592 -78.7908 168° South 165 190 2,400 -540 Descending Washington Center
05:12PM 36.0178 -78.7789 167° South 158 182 2,100 -420 Descending Washington Center
05:13PM 35.9700 -78.7692 171° South 156 180 1,600 -360 Descending Washington Center
05:15PM 35.9261 -78.7650 176° South 122 140 1,300 -420 Descending Washington Center
05:16PM 35.9031 -78.7692 188° South 82 94 800 -600 Descending Washington Center
05:18PM 35.8776 -78.7875 169° South  Level Estimated